MST,Max TemperatureF,Mean TemperatureF,Min TemperatureF,Max Dew PointF,MeanDew PointF,Min DewpointF,Max Humidity, Mean Humidity, Min Humidity, Max Sea Level PressureIn, Mean Sea Level PressureIn, Min Sea Level PressureIn, Max VisibilityMiles, Mean VisibilityMiles, Min VisibilityMiles, Max Wind SpeedMPH, Mean Wind SpeedMPH, Max Gust SpeedMPH,PrecipitationIn, CloudCover, Events, WindDirDegrees
2012-2-1,45,33,20,24,20,16,88,61,33,30.33,30.20,30.04,10,10,8,15,4,15,0.00,0,,142
2012-2-2,40,36,31,31,28,21,89,75,61,30.01,29.91,29.81,10,10,6,15,5,16,T,6,Snow,135
2012-2-3,42,34,26,29,24,14,100,71,41,30.23,30.07,29.92,10,10,10,15,4,17,0.00,5,,60
2012-2-4,42,33,24,22,18,13,88,63,38,30.35,30.28,30.23,10,10,10,12,4,24,0.00,2,,143
2012-2-5,43,33,22,22,17,13,74,52,30,30.36,30.25,30.14,10,10,10,12,5,14,0.00,3,,150
2012-2-6,35,31,26,27,25,16,100,77,53,30.20,30.12,30.08,10,5,0,14,5,16,0.10,8,Fog-Snow,128
2012-2-7,41,34,26,25,21,16,85,63,40,30.32,30.26,30.20,10,10,7,12,3,14,0.00,3,,118
2012-2-8,41,32,23,28,21,15,78,61,44,30.33,30.29,30.21,10,9,2,14,3,16,T,7,Snow,108
2012-2-9,43,36,28,30,28,24,92,73,54,30.32,30.28,30.21,10,7,1,9,2,12,0.01,6,Snow,350
2012-2-10,45,34,22,28,23,17,85,63,40,30.34,30.24,30.17,10,10,10,13,4,16,0.00,3,,137
2012-2-11,51,39,26,30,25,21,85,61,36,30.17,30.04,29.86,10,10,10,10,5,12,0.00,0,,151
2012-2-12,49,41,33,32,27,23,70,56,42,29.82,29.72,29.65,10,10,9,29,7,38,T,5,Snow,156
2012-2-13,45,39,32,32,27,19,96,67,37,29.83,29.76,29.70,10,9,2,16,4,22,0.02,8,Snow,188
2012-2-14,47,38,28,29,23,18,92,62,31,29.81,29.76,29.68,10,10,10,16,7,21,T,4,,145
2012-2-15,44,36,27,27,23,19,92,66,39,30.07,29.92,29.82,10,8,1,14,5,17,0.02,7,Snow,109
2012-2-16,46,35,24,24,20,17,81,57,33,30.27,30.18,30.09,10,10,10,13,5,14,0.00,0,,127
2012-2-17,46,34,21,19,17,13,77,52,27,30.25,30.14,30.04,10,10,10,13,6,16,0.00,0,,143
2012-2-18,48,34,20,18,15,8,84,53,21,30.19,30.05,29.90,10,10,10,10,5,21,0.00,0,,141
2012-2-19,42,33,24,28,22,9,92,62,32,29.88,29.74,29.61,10,7,1,28,8,36,0.01,6,Snow,348
2012-2-20,36,29,21,18,13,4,88,60,31,30.20,30.07,29.85,10,10,10,14,6,18,0.00,5,,106
2012-2-21,48,37,25,24,20,15,88,58,28,30.25,30.15,30.06,10,9,3,10,4,14,T,6,Snow,161
2012-2-22,56,46,36,28,26,24,64,47,30,30.11,29.93,29.69,10,10,10,21,5,28,0.00,2,,156
2012-2-23,46,33,20,27,11,-2,69,43,17,30.20,29.89,29.60,10,10,6,37,14,47,T,2,,287
2012-2-24,44,30,16,10,5,-2,61,38,15,30.44,30.31,30.22,10,10,10,12,6,14,0.00,0,,150
2012-2-25,56,38,19,13,10,6,67,41,14,30.25,29.93,29.77,10,10,6,33,10,47,0.00,0,,204
2012-2-26,41,31,20,11,4,-6,62,39,15,30.18,30.10,29.88,10,10,10,24,5,25,0.00,0,,134
2012-2-27,59,39,19,33,14,2,57,36,14,30.12,29.85,29.62,10,10,10,26,10,36,T,4,Rain,159
2012-2-28,41,34,26,36,29,21,92,72,51,30.08,29.82,29.56,10,7,0,29,9,41,0.43,7,Fog-Rain-Snow,216
2012-2-29,43,33,22,28,23,17,92,65,38,30.18,30.04,29.82,10,10,6,16,5,23,0.01,2,Snow,167